KALN/ALN METAR and TAF weather

Enter ICAO airport designator
Station Type Date Time Source
KALN METAR 2019/02/20 06:55 UTC NOAA

KALN 200655Z AUTO 08009KT 5SM UP OVC009 00/00 A3000 RMK AO2 LTG DSNT SE AND S P0001 T00000000


Station Type Date Time Source
KALN Decoded METAR 2019/02/20 06:55 UTC NOAA

Alton/St. Louis, St. Louis Regional Airport, IL, United States (KALN) 38-54N 090-03W
Feb 20, 2019 - 01:55 AM EST / 2019.02.20 0655 UTC
Wind: from the E (080 degrees) at 10 MPH (9 KT):0
Visibility: 5 mile(s):0
Sky conditions: overcast
Weather: precipitation; Lightning observed
Precipitation last hour: 0.01 inches
Temperature: 32.0 F (0.0 C)
Windchill: 23 F (-5 C):1
Dew Point: 32.0 F (0.0 C)
Relative Humidity: 100%
Pressure (altimeter): 30 in. Hg (1015 hPa)
ob: KALN 200655Z AUTO 08009KT 5SM UP OVC009 00/00 A3000 RMK AO2 LTG DSNT SE AND S P0001 T00000000
cycle: 7

Station Type Date Time Source
KALN TAF UTC NOAA

Error!


Example: see airport list